sensor_id;sensor_type;location;lat;lon;timestamp;temperature;humidity
55693;DHT22;41590;53.366;5.212;2023-01-30T00:01:06;6.40;99.90
55693;DHT22;41590;53.366;5.212;2023-01-30T00:03:49;6.80;99.90
55693;DHT22;41590;53.366;5.212;2023-01-30T00:06:32;6.80;99.90
55693;DHT22;41590;53.366;5.212;2023-01-30T00:12:23;7.10;99.90
55693;DHT22;41590;53.366;5.212;2023-01-30T00:14:57;6.90;99.90
55693;DHT22;41590;53.366;5.212;2023-01-30T00:17:34;6.80;99.90
55693;DHT22;41590;53.366;5.212;2023-01-30T00:27:08;6.80;99.90
55693;DHT22;41590;53.366;5.212;2023-01-30T00:29:40;7.30;99.90
55693;DHT22;41590;53.366;5.212;2023-01-30T00:32:16;6.90;99.90
55693;DHT22;41590;53.366;5.212;2023-01-30T00:38:09;7.30;99.90
55693;DHT22;41590;53.366;5.212;2023-01-30T00:40:53;7.50;99.90
55693;DHT22;41590;53.366;5.212;2023-01-30T00:43:22;7.50;99.90
55693;DHT22;41590;53.366;5.212;2023-01-30T00:46:33;7.40;99.90
55693;DHT22;41590;53.366;5.212;2023-01-30T00:49:33;6.70;99.90
55693;DHT22;41590;53.366;5.212;2023-01-30T00:52:00;6.90;99.90
55693;DHT22;41590;53.366;5.212;2023-01-30T00:54:26;7.40;99.90
55693;DHT22;41590;53.366;5.212;2023-01-30T00:57:08;7.50;99.90
55693;DHT22;41590;53.366;5.212;2023-01-30T00:59:43;7.40;99.90
55693;DHT22;41590;53.366;5.212;2023-01-30T01:02:21;7.10;99.90
55693;DHT22;41590;53.366;5.212;2023-01-30T01:08:48;7.50;99.90
55693;DHT22;41590;53.366;5.212;2023-01-30T01:14:18;7.30;99.90
55693;DHT22;41590;53.366;5.212;2023-01-30T01:17:17;7.40;99.90
55693;DHT22;41590;53.366;5.212;2023-01-30T01:26:32;7.00;99.90
55693;DHT22;41590;53.366;5.212;2023-01-30T01:29:02;7.10;99.90
55693;DHT22;41590;53.366;5.212;2023-01-30T01:31:48;7.30;99.90
55693;DHT22;41590;53.366;5.212;2023-01-30T01:34:33;7.30;99.90
55693;DHT22;41590;53.366;5.212;2023-01-30T01:37:09;7.50;99.90
55693;DHT22;41590;53.366;5.212;2023-01-30T01:39:56;7.50;99.90
55693;DHT22;41590;53.366;5.212;2023-01-30T01:46:17;7.10;99.90
55693;DHT22;41590;53.366;5.212;2023-01-30T01:48:54;7.00;99.90
55693;DHT22;41590;53.366;5.212;2023-01-30T01:51:45;6.90;99.90
55693;DHT22;41590;53.366;5.212;2023-01-30T01:54:45;7.40;99.90
55693;DHT22;41590;53.366;5.212;2023-01-30T01:57:41;7.30;99.90
55693;DHT22;41590;53.366;5.212;2023-01-30T02:00:20;6.30;99.90
55693;DHT22;41590;53.366;5.212;2023-01-30T02:03:02;7.20;99.90
55693;DHT22;41590;53.366;5.212;2023-01-30T02:05:39;7.50;99.90
55693;DHT22;41590;53.366;5.212;2023-01-30T02:08:45;7.50;99.90
55693;DHT22;41590;53.366;5.212;2023-01-30T02:11:40;7.60;99.90
55693;DHT22;41590;53.366;5.212;2023-01-30T02:17:21;7.50;99.90
55693;DHT22;41590;53.366;5.212;2023-01-30T02:35:20;7.10;99.90
55693;DHT22;41590;53.366;5.212;2023-01-30T02:50:09;7.10;99.90
55693;DHT22;41590;53.366;5.212;2023-01-30T02:52:38;7.10;99.90
55693;DHT22;41590;53.366;5.212;2023-01-30T02:55:32;7.20;99.90
55693;DHT22;41590;53.366;5.212;2023-01-30T03:04:28;6.70;99.90
55693;DHT22;41590;53.366;5.212;2023-01-30T03:12:13;7.00;99.90
55693;DHT22;41590;53.366;5.212;2023-01-30T03:17:58;6.80;99.90
55693;DHT22;41590;53.366;5.212;2023-01-30T03:20:43;6.80;99.90
55693;DHT22;41590;53.366;5.212;2023-01-30T03:23:09;6.70;99.90
55693;DHT22;41590;53.366;5.212;2023-01-30T03:25:53;6.30;99.90
55693;DHT22;41590;53.366;5.212;2023-01-30T03:28:20;6.10;99.90
55693;DHT22;41590;53.366;5.212;2023-01-30T03:30:46;6.20;99.90
55693;DHT22;41590;53.366;5.212;2023-01-30T03:33:33;6.20;99.90
55693;DHT22;41590;53.366;5.212;2023-01-30T03:36:05;6.20;99.90
55693;DHT22;41590;53.366;5.212;2023-01-30T03:38:33;6.30;99.90
55693;DHT22;41590;53.366;5.212;2023-01-30T03:41:22;6.30;99.90
55693;DHT22;41590;53.366;5.212;2023-01-30T03:43:54;6.20;99.90
55693;DHT22;41590;53.366;5.212;2023-01-30T03:46:44;6.10;99.90
55693;DHT22;41590;53.366;5.212;2023-01-30T03:49:15;6.20;99.90
55693;DHT22;41590;53.366;5.212;2023-01-30T03:52:02;6.40;99.90
55693;DHT22;41590;53.366;5.212;2023-01-30T03:54:28;6.40;99.90
55693;DHT22;41590;53.366;5.212;2023-01-30T03:57:02;6.20;99.90
55693;DHT22;41590;53.366;5.212;2023-01-30T03:59:28;6.30;99.90
55693;DHT22;41590;53.366;5.212;2023-01-30T04:01:54;6.20;99.90
55693;DHT22;41590;53.366;5.212;2023-01-30T04:04:25;6.40;99.90
55693;DHT22;41590;53.366;5.212;2023-01-30T04:09:55;6.20;99.90
55693;DHT22;41590;53.366;5.212;2023-01-30T04:12:33;6.20;99.90
55693;DHT22;41590;53.366;5.212;2023-01-30T04:15:01;6.20;99.90
55693;DHT22;41590;53.366;5.212;2023-01-30T04:17:29;6.10;99.90
55693;DHT22;41590;53.366;5.212;2023-01-30T04:19:56;6.10;99.90
55693;DHT22;41590;53.366;5.212;2023-01-30T04:22:23;6.30;99.90
55693;DHT22;41590;53.366;5.212;2023-01-30T04:25:04;6.20;99.90
55693;DHT22;41590;53.366;5.212;2023-01-30T04:27:50;6.10;99.90
55693;DHT22;41590;53.366;5.212;2023-01-30T04:30:34;6.30;99.90
55693;DHT22;41590;53.366;5.212;2023-01-30T04:36:24;6.10;99.90
55693;DHT22;41590;53.366;5.212;2023-01-30T04:39:00;6.10;99.90
55693;DHT22;41590;53.366;5.212;2023-01-30T04:41:27;6.00;99.90
55693;DHT22;41590;53.366;5.212;2023-01-30T04:43:59;6.20;99.90
55693;DHT22;41590;53.366;5.212;2023-01-30T04:46:29;6.00;99.90
55693;DHT22;41590;53.366;5.212;2023-01-30T04:48:55;6.00;99.90
55693;DHT22;41590;53.366;5.212;2023-01-30T04:51:32;6.20;99.90
55693;DHT22;41590;53.366;5.212;2023-01-30T04:53:59;6.10;99.90
55693;DHT22;41590;53.366;5.212;2023-01-30T04:56:46;6.20;99.90
55693;DHT22;41590;53.366;5.212;2023-01-30T04:59:12;6.00;99.90
55693;DHT22;41590;53.366;5.212;2023-01-30T05:01:46;6.00;99.90
55693;DHT22;41590;53.366;5.212;2023-01-30T05:04:12;6.00;99.90
55693;DHT22;41590;53.366;5.212;2023-01-30T05:07:01;6.00;99.90
55693;DHT22;41590;53.366;5.212;2023-01-30T05:09:28;6.00;99.90
55693;DHT22;41590;53.366;5.212;2023-01-30T05:11:54;6.00;99.90
55693;DHT22;41590;53.366;5.212;2023-01-30T05:14:32;6.10;99.90
55693;DHT22;41590;53.366;5.212;2023-01-30T05:17:13;6.10;99.90
55693;DHT22;41590;53.366;5.212;2023-01-30T05:19:45;6.20;99.90
55693;DHT22;41590;53.366;5.212;2023-01-30T05:22:17;6.10;99.90
55693;DHT22;41590;53.366;5.212;2023-01-30T05:24:53;6.20;99.90
55693;DHT22;41590;53.366;5.212;2023-01-30T05:27:22;6.10;99.90
55693;DHT22;41590;53.366;5.212;2023-01-30T05:29:49;6.00;99.90
55693;DHT22;41590;53.366;5.212;2023-01-30T05:32:33;6.00;99.90
55693;DHT22;41590;53.366;5.212;2023-01-30T05:35:18;6.10;99.90
55693;DHT22;41590;53.366;5.212;2023-01-30T05:38:14;6.20;99.90
55693;DHT22;41590;53.366;5.212;2023-01-30T05:40:42;6.10;99.90
55693;DHT22;41590;53.366;5.212;2023-01-30T05:43:26;6.00;99.90
55693;DHT22;41590;53.366;5.212;2023-01-30T05:46:03;6.10;99.90
55693;DHT22;41590;53.366;5.212;2023-01-30T05:48:47;5.90;99.90
55693;DHT22;41590;53.366;5.212;2023-01-30T05:51:34;6.00;99.90
55693;DHT22;41590;53.366;5.212;2023-01-30T05:58:02;6.10;99.90
55693;DHT22;41590;53.366;5.212;2023-01-30T06:00:36;5.90;99.90
55693;DHT22;41590;53.366;5.212;2023-01-30T06:03:12;6.10;99.90
55693;DHT22;41590;53.366;5.212;2023-01-30T06:05:39;6.10;99.90
55693;DHT22;41590;53.366;5.212;2023-01-30T06:08:18;5.90;99.90
55693;DHT22;41590;53.366;5.212;2023-01-30T06:10:58;5.90;99.90
55693;DHT22;41590;53.366;5.212;2023-01-30T06:13:39;6.00;99.90
55693;DHT22;41590;53.366;5.212;2023-01-30T06:16:09;6.00;99.90
55693;DHT22;41590;53.366;5.212;2023-01-30T06:18:35;5.90;99.90
55693;DHT22;41590;53.366;5.212;2023-01-30T06:21:09;5.90;99.90
55693;DHT22;41590;53.366;5.212;2023-01-30T06:23:38;6.00;99.90
55693;DHT22;41590;53.366;5.212;2023-01-30T06:26:05;6.00;99.90
55693;DHT22;41590;53.366;5.212;2023-01-30T06:28:54;6.00;99.90
55693;DHT22;41590;53.366;5.212;2023-01-30T06:31:19;6.00;99.90
55693;DHT22;41590;53.366;5.212;2023-01-30T06:33:47;6.00;99.90
55693;DHT22;41590;53.366;5.212;2023-01-30T06:36:14;5.90;99.90
55693;DHT22;41590;53.366;5.212;2023-01-30T06:38:44;5.90;99.90
55693;DHT22;41590;53.366;5.212;2023-01-30T06:41:28;6.00;99.90
55693;DHT22;41590;53.366;5.212;2023-01-30T06:44:12;6.10;99.90
55693;DHT22;41590;53.366;5.212;2023-01-30T06:46:40;5.90;99.90
55693;DHT22;41590;53.366;5.212;2023-01-30T06:49:10;5.80;99.90
55693;DHT22;41590;53.366;5.212;2023-01-30T06:51:56;6.00;99.90
55693;DHT22;41590;53.366;5.212;2023-01-30T06:54:23;6.00;99.90
55693;DHT22;41590;53.366;5.212;2023-01-30T06:56:52;6.10;99.90
55693;DHT22;41590;53.366;5.212;2023-01-30T06:59:23;6.20;99.90
55693;DHT22;41590;53.366;5.212;2023-01-30T07:01:56;6.10;99.90
55693;DHT22;41590;53.366;5.212;2023-01-30T07:04:47;6.20;99.90
55693;DHT22;41590;53.366;5.212;2023-01-30T07:07:13;6.30;99.90
55693;DHT22;41590;53.366;5.212;2023-01-30T07:09:40;6.40;99.90
55693;DHT22;41590;53.366;5.212;2023-01-30T07:12:06;6.20;99.90
55693;DHT22;41590;53.366;5.212;2023-01-30T07:14:44;6.40;99.90
55693;DHT22;41590;53.366;5.212;2023-01-30T07:17:20;6.30;99.90
55693;DHT22;41590;53.366;5.212;2023-01-30T07:19:51;6.30;99.90
55693;DHT22;41590;53.366;5.212;2023-01-30T07:22:26;6.40;99.90
55693;DHT22;41590;53.366;5.212;2023-01-30T07:25:04;6.30;99.90
55693;DHT22;41590;53.366;5.212;2023-01-30T07:28:01;6.50;99.90
55693;DHT22;41590;53.366;5.212;2023-01-30T07:30:40;6.30;99.90
55693;DHT22;41590;53.366;5.212;2023-01-30T07:33:28;6.40;99.90
55693;DHT22;41590;53.366;5.212;2023-01-30T07:36:02;6.20;99.90
55693;DHT22;41590;53.366;5.212;2023-01-30T07:38:34;6.30;99.90
55693;DHT22;41590;53.366;5.212;2023-01-30T07:41:14;6.30;99.90
55693;DHT22;41590;53.366;5.212;2023-01-30T07:44:12;6.50;99.90
55693;DHT22;41590;53.366;5.212;2023-01-30T07:46:51;6.40;99.90
55693;DHT22;41590;53.366;5.212;2023-01-30T07:49:25;6.50;99.90
55693;DHT22;41590;53.366;5.212;2023-01-30T07:52:02;6.40;99.90
55693;DHT22;41590;53.366;5.212;2023-01-30T07:54:32;6.30;99.90
55693;DHT22;41590;53.366;5.212;2023-01-30T07:57:01;6.40;99.90
55693;DHT22;41590;53.366;5.212;2023-01-30T07:59:48;6.50;99.90
55693;DHT22;41590;53.366;5.212;2023-01-30T08:02:20;6.40;99.90
55693;DHT22;41590;53.366;5.212;2023-01-30T08:05:01;6.40;99.90
55693;DHT22;41590;53.366;5.212;2023-01-30T08:07:35;6.40;99.90
55693;DHT22;41590;53.366;5.212;2023-01-30T08:10:06;6.30;99.90
55693;DHT22;41590;53.366;5.212;2023-01-30T08:12:32;6.40;99.90
55693;DHT22;41590;53.366;5.212;2023-01-30T08:14:58;6.40;99.90
55693;DHT22;41590;53.366;5.212;2023-01-30T08:17:29;6.40;99.90
55693;DHT22;41590;53.366;5.212;2023-01-30T08:20:07;6.50;99.90
55693;DHT22;41590;53.366;5.212;2023-01-30T08:23:04;6.50;99.90
55693;DHT22;41590;53.366;5.212;2023-01-30T08:25:30;6.70;99.90
55693;DHT22;41590;53.366;5.212;2023-01-30T08:28:00;6.50;99.90
55693;DHT22;41590;53.366;5.212;2023-01-30T08:30:36;6.60;99.90
55693;DHT22;41590;53.366;5.212;2023-01-30T08:33:37;6.60;99.90
55693;DHT22;41590;53.366;5.212;2023-01-30T08:36:06;6.50;99.90
55693;DHT22;41590;53.366;5.212;2023-01-30T08:42:14;6.70;99.90
55693;DHT22;41590;53.366;5.212;2023-01-30T08:44:40;6.90;99.90
55693;DHT22;41590;53.366;5.212;2023-01-30T08:47:08;6.90;99.90
55693;DHT22;41590;53.366;5.212;2023-01-30T08:49:50;7.00;99.90
55693;DHT22;41590;53.366;5.212;2023-01-30T08:52:27;7.00;99.90
55693;DHT22;41590;53.366;5.212;2023-01-30T08:55:22;7.00;99.90
55693;DHT22;41590;53.366;5.212;2023-01-30T08:57:51;6.90;99.90
55693;DHT22;41590;53.366;5.212;2023-01-30T09:03:34;7.00;99.90
55693;DHT22;41590;53.366;5.212;2023-01-30T09:06:05;7.00;99.90
55693;DHT22;41590;53.366;5.212;2023-01-30T09:09:00;7.00;99.90
55693;DHT22;41590;53.366;5.212;2023-01-30T09:11:27;7.00;99.90
55693;DHT22;41590;53.366;5.212;2023-01-30T09:14:07;7.10;99.90
55693;DHT22;41590;53.366;5.212;2023-01-30T09:16:36;7.10;99.90
55693;DHT22;41590;53.366;5.212;2023-01-30T09:19:01;6.90;99.90
55693;DHT22;41590;53.366;5.212;2023-01-30T09:21:52;6.90;99.90
55693;DHT22;41590;53.366;5.212;2023-01-30T09:24:21;6.90;99.90
55693;DHT22;41590;53.366;5.212;2023-01-30T09:27:18;6.90;99.90
55693;DHT22;41590;53.366;5.212;2023-01-30T09:30:04;7.10;99.90
55693;DHT22;41590;53.366;5.212;2023-01-30T09:32:44;7.10;99.90
55693;DHT22;41590;53.366;5.212;2023-01-30T09:35:19;7.10;99.90
55693;DHT22;41590;53.366;5.212;2023-01-30T09:37:52;7.10;99.90
55693;DHT22;41590;53.366;5.212;2023-01-30T09:40:27;7.20;99.90
55693;DHT22;41590;53.366;5.212;2023-01-30T09:46:58;7.20;99.90
55693;DHT22;41590;53.366;5.212;2023-01-30T09:55:51;7.50;99.90
55693;DHT22;41590;53.366;5.212;2023-01-30T09:58:20;7.50;99.90
55693;DHT22;41590;53.366;5.212;2023-01-30T10:01:13;7.50;99.90
55693;DHT22;41590;53.366;5.212;2023-01-30T10:14:55;7.80;99.90
55693;DHT22;41590;53.366;5.212;2023-01-30T10:26:22;7.00;99.90
55693;DHT22;41590;53.366;5.212;2023-01-30T10:29:03;7.10;99.90
55693;DHT22;41590;53.366;5.212;2023-01-30T10:35:41;7.10;99.90
55693;DHT22;41590;53.366;5.212;2023-01-30T10:38:26;7.10;99.90
55693;DHT22;41590;53.366;5.212;2023-01-30T10:44:34;7.10;99.90
55693;DHT22;41590;53.366;5.212;2023-01-30T10:50:18;7.20;99.90
55693;DHT22;41590;53.366;5.212;2023-01-30T11:05:20;8.00;99.90
55693;DHT22;41590;53.366;5.212;2023-01-30T11:08:16;7.80;99.90
55693;DHT22;41590;53.366;5.212;2023-01-30T11:18:19;6.00;99.90
55693;DHT22;41590;53.366;5.212;2023-01-30T11:24:24;7.00;99.90
55693;DHT22;41590;53.366;5.212;2023-01-30T11:28:04;6.90;99.90
55693;DHT22;41590;53.366;5.212;2023-01-30T11:34:33;6.20;99.90
55693;DHT22;41590;53.366;5.212;2023-01-30T11:40:39;5.50;99.90
55693;DHT22;41590;53.366;5.212;2023-01-30T11:43:16;5.70;99.90
55693;DHT22;41590;53.366;5.212;2023-01-30T11:45:46;6.70;99.90
55693;DHT22;41590;53.366;5.212;2023-01-30T11:48:16;6.60;99.90
55693;DHT22;41590;53.366;5.212;2023-01-30T11:51:02;6.90;99.90
55693;DHT22;41590;53.366;5.212;2023-01-30T11:53:56;6.60;99.90
55693;DHT22;41590;53.366;5.212;2023-01-30T11:56:39;7.10;99.90
55693;DHT22;41590;53.366;5.212;2023-01-30T12:20:54;7.40;99.90
55693;DHT22;41590;53.366;5.212;2023-01-30T12:26:54;7.20;99.90
55693;DHT22;41590;53.366;5.212;2023-01-30T12:29:33;7.60;99.90
55693;DHT22;41590;53.366;5.212;2023-01-30T12:32:15;7.50;99.90
55693;DHT22;41590;53.366;5.212;2023-01-30T12:34:42;7.70;99.90
55693;DHT22;41590;53.366;5.212;2023-01-30T12:43:38;7.80;99.90
55693;DHT22;41590;53.366;5.212;2023-01-30T12:49:35;7.50;99.90
55693;DHT22;41590;53.366;5.212;2023-01-30T12:55:23;7.90;99.90
55693;DHT22;41590;53.366;5.212;2023-01-30T13:05:55;7.90;99.90
55693;DHT22;41590;53.366;5.212;2023-01-30T13:08:51;7.80;99.90
55693;DHT22;41590;53.366;5.212;2023-01-30T13:14:34;7.80;99.90
55693;DHT22;41590;53.366;5.212;2023-01-30T13:19:50;7.80;99.90
55693;DHT22;41590;53.366;5.212;2023-01-30T13:22:23;7.80;99.90
55693;DHT22;41590;53.366;5.212;2023-01-30T13:25:00;7.80;99.90
55693;DHT22;41590;53.366;5.212;2023-01-30T13:27:29;7.60;99.90
55693;DHT22;41590;53.366;5.212;2023-01-30T13:29:58;7.70;99.90
55693;DHT22;41590;53.366;5.212;2023-01-30T13:32:49;7.60;99.90
55693;DHT22;41590;53.366;5.212;2023-01-30T13:35:20;7.90;99.90
55693;DHT22;41590;53.366;5.212;2023-01-30T13:37:53;7.90;99.90
55693;DHT22;41590;53.366;5.212;2023-01-30T13:40:25;7.50;99.90
55693;DHT22;41590;53.366;5.212;2023-01-30T13:42:59;7.40;99.90
55693;DHT22;41590;53.366;5.212;2023-01-30T13:45:33;7.90;99.90
55693;DHT22;41590;53.366;5.212;2023-01-30T14:03:33;7.40;99.90
55693;DHT22;41590;53.366;5.212;2023-01-30T14:09:26;7.80;99.90
55693;DHT22;41590;53.366;5.212;2023-01-30T14:20:35;7.40;99.90
55693;DHT22;41590;53.366;5.212;2023-01-30T14:25:56;7.20;99.90
55693;DHT22;41590;53.366;5.212;2023-01-30T14:28:46;7.20;99.90
55693;DHT22;41590;53.366;5.212;2023-01-30T14:31:47;7.20;99.90
55693;DHT22;41590;53.366;5.212;2023-01-30T14:34:40;7.70;99.90
55693;DHT22;41590;53.366;5.212;2023-01-30T14:40:34;7.20;99.90
55693;DHT22;41590;53.366;5.212;2023-01-30T14:58:04;6.70;99.90
55693;DHT22;41590;53.366;5.212;2023-01-30T15:33:05;6.90;99.90
55693;DHT22;41590;53.366;5.212;2023-01-30T15:53:36;6.30;99.90
55693;DHT22;41590;53.366;5.212;2023-01-30T16:03:45;6.40;99.90
55693;DHT22;41590;53.366;5.212;2023-01-30T16:16:06;5.60;99.90
55693;DHT22;41590;53.366;5.212;2023-01-30T16:19:03;6.00;99.90
55693;DHT22;41590;53.366;5.212;2023-01-30T16:54:24;5.60;99.90
55693;DHT22;41590;53.366;5.212;2023-01-30T17:19:18;5.70;99.90
55693;DHT22;41590;53.366;5.212;2023-01-30T20:39:42;4.60;99.90
55693;DHT22;41590;53.366;5.212;2023-01-30T20:46:38;4.90;99.90
55693;DHT22;41590;53.366;5.212;2023-01-30T21:42:26;4.90;99.90
55693;DHT22;41590;53.366;5.212;2023-01-30T21:49:03;5.30;99.90
55693;DHT22;41590;53.366;5.212;2023-01-30T21:51:29;5.60;99.90
55693;DHT22;41590;53.366;5.212;2023-01-30T21:57:10;4.70;99.90
55693;DHT22;41590;53.366;5.212;2023-01-30T21:59:50;5.30;99.90
55693;DHT22;41590;53.366;5.212;2023-01-30T22:02:31;5.10;99.90
55693;DHT22;41590;53.366;5.212;2023-01-30T22:05:17;4.70;99.90
55693;DHT22;41590;53.366;5.212;2023-01-30T22:15:29;4.70;99.90
